createdAt,value
2017-10-11T00:01:48.991Z,14.93
2017-10-11T00:04:16.540Z,14.10
2017-10-11T00:06:44.079Z,14.00
2017-10-11T00:09:11.595Z,14.13
2017-10-11T00:11:39.107Z,13.45
2017-10-11T00:14:06.631Z,14.70
2017-10-11T00:16:34.168Z,14.18
2017-10-11T00:19:01.726Z,12.70
2017-10-11T00:21:29.236Z,14.40
2017-10-11T00:23:56.771Z,13.13
2017-10-11T00:26:25.364Z,13.98
2017-10-11T00:28:52.909Z,13.30
2017-10-11T00:31:20.412Z,14.52
2017-10-11T00:33:47.954Z,12.57
2017-10-11T00:36:15.476Z,13.10
2017-10-11T00:38:43.004Z,13.13
2017-10-11T00:41:10.526Z,13.55
2017-10-11T00:43:38.056Z,12.45
2017-10-11T00:46:05.569Z,12.00
2017-10-11T00:48:33.098Z,12.50
2017-10-11T00:51:00.618Z,13.00
2017-10-11T00:53:28.128Z,12.13
2017-10-11T00:55:56.430Z,10.93
2017-10-11T00:58:23.961Z,10.20
2017-10-11T01:00:51.462Z,11.73
2017-10-11T01:03:18.991Z,10.95
2017-10-11T01:05:46.782Z,11.60
2017-10-11T01:08:14.428Z,10.70
2017-10-11T01:10:41.930Z,10.60
2017-10-11T01:13:09.458Z,11.10
2017-10-11T01:15:36.987Z,12.37
2017-10-11T01:18:04.496Z,10.27
2017-10-11T01:20:32.056Z,11.12
2017-10-11T01:22:59.610Z,10.25
2017-10-11T01:25:27.952Z,11.63
2017-10-11T01:27:55.464Z,10.57
2017-10-11T01:30:22.980Z,8.75
2017-10-11T01:32:50.518Z,11.88
2017-10-11T01:35:18.792Z,11.20
2017-10-11T01:37:46.324Z,11.43
2017-10-11T01:40:13.835Z,10.82
2017-10-11T01:42:41.343Z,9.65
2017-10-11T01:45:08.851Z,10.98
2017-10-11T01:47:36.356Z,10.48
2017-10-11T01:50:03.878Z,11.50
2017-10-11T01:52:31.379Z,11.18
2017-10-11T01:54:58.906Z,11.18
2017-10-11T01:57:26.428Z,11.15
2017-10-11T01:59:53.960Z,11.45
2017-10-11T02:02:21.482Z,12.27
2017-10-11T02:04:48.990Z,11.43
2017-10-11T02:07:17.265Z,10.02
2017-10-11T02:09:44.784Z,11.77
2017-10-11T02:12:12.325Z,13.02
2017-10-11T02:14:39.837Z,13.00
2017-10-11T02:17:07.353Z,12.50
2017-10-11T02:19:34.857Z,13.80
2017-10-11T02:22:03.212Z,12.90
2017-10-11T02:24:31.088Z,13.10
2017-10-11T02:26:58.605Z,14.95
2017-10-11T02:29:26.107Z,15.40
2017-10-11T02:31:53.612Z,15.10
2017-10-11T02:34:21.202Z,12.98
2017-10-11T02:36:48.711Z,15.80
2017-10-11T02:39:17.002Z,12.57
2017-10-11T02:41:44.525Z,16.08
2017-10-11T02:44:12.060Z,18.10
2017-10-11T02:46:39.573Z,18.45
2017-10-11T02:49:07.841Z,19.20
2017-10-11T02:51:36.131Z,18.73
2017-10-11T02:54:04.425Z,16.27
2017-10-11T02:56:31.940Z,20.05
2017-10-11T02:58:59.461Z,21.12
2017-10-11T03:01:27.051Z,19.70
2017-10-11T03:03:54.553Z,20.75
2017-10-11T03:06:22.072Z,21.45
2017-10-11T03:08:49.629Z,19.98
2017-10-11T03:11:17.175Z,20.15
2017-10-11T03:13:44.689Z,18.37
2017-10-11T03:16:12.203Z,18.87
2017-10-11T03:18:39.728Z,19.37
2017-10-11T03:21:07.326Z,19.48
2017-10-11T03:23:34.855Z,18.80
2017-10-11T03:26:02.374Z,18.75
2017-10-11T03:28:30.677Z,18.85
2017-10-11T03:30:58.203Z,18.95
2017-10-11T03:33:25.712Z,17.65
2017-10-11T03:35:53.224Z,19.27
2017-10-11T03:38:21.500Z,17.92
2017-10-11T03:40:49.776Z,18.80
2017-10-11T03:43:18.062Z,17.97
2017-10-11T03:45:46.359Z,19.35
2017-10-11T03:48:13.864Z,17.60
2017-10-11T03:50:41.385Z,16.25
2017-10-11T03:53:08.883Z,18.35
2017-10-11T03:55:36.398Z,17.70
2017-10-11T03:58:03.918Z,17.20
2017-10-11T04:00:31.435Z,17.27
2017-10-11T04:02:58.957Z,17.95
2017-10-11T04:05:27.245Z,16.08
2017-10-11T04:07:54.767Z,15.63
2017-10-11T04:10:22.288Z,15.35
2017-10-11T04:12:49.810Z,15.90
2017-10-11T04:15:18.099Z,15.68
2017-10-11T04:17:45.629Z,13.48
2017-10-11T04:20:13.147Z,16.30
2017-10-11T04:22:40.666Z,15.43
2017-10-11T04:25:08.948Z,14.20
2017-10-11T04:27:37.243Z,14.57
2017-10-11T04:30:04.765Z,15.65
2017-10-11T04:32:32.309Z,15.77
2017-10-11T04:34:59.836Z,14.52
2017-10-11T04:37:27.375Z,14.05
2017-10-11T04:39:54.896Z,14.50
2017-10-11T04:42:22.415Z,14.45
2017-10-11T04:44:49.957Z,15.68
2017-10-11T04:47:17.496Z,14.52
2017-10-11T04:49:45.803Z,15.50
2017-10-11T04:52:13.332Z,14.52
2017-10-11T04:54:40.852Z,14.52
2017-10-11T04:57:08.367Z,14.40
2017-10-11T04:59:35.894Z,15.90
2017-10-11T05:02:03.418Z,15.00
2017-10-11T05:04:30.969Z,14.77
2017-10-11T05:06:58.479Z,14.27
2017-10-11T05:09:26.776Z,13.43
2017-10-11T05:11:54.337Z,15.55
2017-10-11T05:14:21.863Z,15.07
2017-10-11T05:16:49.383Z,16.25
2017-10-11T05:19:16.903Z,13.93
2017-10-11T05:21:45.495Z,15.85
2017-10-11T05:24:13.773Z,14.98
2017-10-11T05:26:41.282Z,14.13
2017-10-11T05:29:08.792Z,15.30
2017-10-11T05:31:37.064Z,15.60
2017-10-11T05:34:05.385Z,14.30
2017-10-11T05:36:32.887Z,16.35
2017-10-11T05:39:00.408Z,14.75
2017-10-11T05:41:27.962Z,15.57
2017-10-11T05:43:56.079Z,14.55
2017-10-11T05:46:23.596Z,15.10
2017-10-11T05:48:51.128Z,13.88
2017-10-11T05:51:18.639Z,14.57
2017-10-11T05:53:46.149Z,14.63
2017-10-11T05:56:13.705Z,15.95
2017-10-11T05:58:41.790Z,14.48
2017-10-11T06:01:09.328Z,15.00
2017-10-11T06:03:36.981Z,15.30
2017-10-11T06:06:04.612Z,15.32
2017-10-11T06:08:32.156Z,15.20
2017-10-11T06:10:59.660Z,14.55
2017-10-11T06:13:27.940Z,14.20
2017-10-11T06:15:56.218Z,14.63
2017-10-11T06:18:24.585Z,14.27
2017-10-11T06:20:52.116Z,14.68
2017-10-11T06:23:19.656Z,15.07
2017-10-11T06:25:47.158Z,14.87
2017-10-11T06:28:14.667Z,13.90
2017-10-11T06:30:42.208Z,14.60
2017-10-11T06:33:09.776Z,13.57
2017-10-11T06:35:37.300Z,12.70
2017-10-11T06:38:05.666Z,11.65
2017-10-11T06:40:33.709Z,12.10
2017-10-11T06:43:01.229Z,14.80
2017-10-11T06:45:28.735Z,13.20
2017-10-11T06:47:56.242Z,12.40
2017-10-11T06:50:29.194Z,12.80
2017-10-11T06:52:56.724Z,12.90
2017-10-11T06:55:24.253Z,11.40
2017-10-11T06:57:51.770Z,12.07
2017-10-11T07:00:19.277Z,12.60
2017-10-11T07:02:46.808Z,12.87
2017-10-11T07:05:14.344Z,11.18
2017-10-11T07:07:41.867Z,11.50
2017-10-11T07:10:09.398Z,12.25
2017-10-11T07:12:37.111Z,11.00
2017-10-11T07:15:04.665Z,10.88
2017-10-11T07:17:32.209Z,11.80
2017-10-11T07:19:59.737Z,11.05
2017-10-11T07:22:28.087Z,10.27
2017-10-11T07:24:55.618Z,9.70
2017-10-11T07:27:23.137Z,9.85
2017-10-11T07:29:50.660Z,10.30
2017-10-11T07:32:18.196Z,9.57
2017-10-11T07:34:45.712Z,9.13
2017-10-11T07:37:13.992Z,8.95
2017-10-11T07:39:42.598Z,9.38
2017-10-11T07:42:10.111Z,10.02
2017-10-11T07:44:40.219Z,9.73
2017-10-11T07:47:07.740Z,9.05
2017-10-11T07:49:35.335Z,8.45
2017-10-11T07:52:02.850Z,9.00
2017-10-11T07:54:30.567Z,9.18
2017-10-11T07:56:58.292Z,8.88
2017-10-11T07:59:25.813Z,7.80
2017-10-11T08:01:53.369Z,5.82
2017-10-11T08:04:20.877Z,7.10
2017-10-11T08:06:48.450Z,5.95
2017-10-11T08:09:15.991Z,6.78
2017-10-11T08:11:43.547Z,8.00
2017-10-11T08:14:11.044Z,7.62
2017-10-11T08:16:38.560Z,7.50
2017-10-11T08:19:06.113Z,8.07
2017-10-11T08:21:33.651Z,8.20
2017-10-11T08:24:01.160Z,7.03
2017-10-11T08:26:28.668Z,6.90
2017-10-11T08:28:56.191Z,6.60
2017-10-11T08:31:23.680Z,6.67
2017-10-11T08:33:51.276Z,6.68
2017-10-11T08:36:18.782Z,6.62
2017-10-11T08:38:46.289Z,6.93
2017-10-11T08:41:13.802Z,4.82
2017-10-11T08:43:41.307Z,5.85
2017-10-11T08:46:08.813Z,5.20
2017-10-11T08:48:36.314Z,5.20
2017-10-11T08:51:03.828Z,5.65
2017-10-11T08:53:31.337Z,5.57
2017-10-11T08:55:59.613Z,4.85
2017-10-11T08:58:27.893Z,6.72
2017-10-11T09:00:56.175Z,6.40
2017-10-11T09:03:23.699Z,4.78
2017-10-11T09:05:51.234Z,3.67
2017-10-11T09:08:18.738Z,4.20
2017-10-11T09:10:47.014Z,4.47
2017-10-11T09:13:15.292Z,4.53
2017-10-11T09:15:43.595Z,5.32
2017-10-11T09:18:11.104Z,4.80
2017-10-11T09:20:38.779Z,4.47
2017-10-11T09:23:06.483Z,5.00
2017-10-11T09:25:33.985Z,4.07
2017-10-11T09:28:01.495Z,5.47
2017-10-11T09:30:29.001Z,5.03
2017-10-11T09:32:56.503Z,4.28
2017-10-11T09:35:24.032Z,5.15
2017-10-11T09:37:51.626Z,4.57
2017-10-11T09:40:19.142Z,5.15
2017-10-11T09:42:46.638Z,4.28
2017-10-11T09:45:14.235Z,4.97
2017-10-11T09:47:41.724Z,5.30
2017-10-11T09:50:09.256Z,5.55
2017-10-11T09:52:36.773Z,6.43
2017-10-11T09:55:04.284Z,5.65
2017-10-11T09:57:31.803Z,4.32
2017-10-11T09:59:59.367Z,5.40
2017-10-11T10:02:26.911Z,4.18
2017-10-11T10:04:55.187Z,4.90
2017-10-11T10:07:23.589Z,3.92
2017-10-11T10:09:51.090Z,3.70
2017-10-11T10:12:18.592Z,5.28
2017-10-11T10:14:46.913Z,4.30
2017-10-11T10:17:14.419Z,4.62
2017-10-11T10:19:41.918Z,5.10
2017-10-11T10:22:09.440Z,4.72
2017-10-11T10:24:37.751Z,4.47
2017-10-11T10:27:05.256Z,4.75
2017-10-11T10:29:32.775Z,4.60
2017-10-11T10:32:00.379Z,4.85
2017-10-11T10:34:27.921Z,3.62
2017-10-11T10:36:55.431Z,3.50
2017-10-11T10:39:22.963Z,3.05
2017-10-11T10:41:50.544Z,2.80
2017-10-11T10:44:18.109Z,4.37
2017-10-11T10:46:45.623Z,4.50
2017-10-11T10:49:13.125Z,4.40
2017-10-11T10:51:40.634Z,5.25
2017-10-11T10:54:08.140Z,4.65
2017-10-11T10:56:35.715Z,4.50
2017-10-11T10:59:03.216Z,5.32
2017-10-11T11:01:30.712Z,5.70
2017-10-11T11:03:58.248Z,5.20
2017-10-11T11:06:25.784Z,4.32
2017-10-11T11:08:53.296Z,6.30
2017-10-11T11:11:20.836Z,6.97
2017-10-11T11:13:49.207Z,4.72
2017-10-11T11:16:16.761Z,4.57
2017-10-11T11:18:44.307Z,6.55
2017-10-11T11:21:11.809Z,7.78
2017-10-11T11:23:39.327Z,7.45
2017-10-11T11:26:06.841Z,8.57
2017-10-11T11:28:34.370Z,7.00
2017-10-11T11:31:01.890Z,6.22
2017-10-11T11:33:29.418Z,7.90
2017-10-11T11:35:56.964Z,7.93
2017-10-11T11:38:24.477Z,7.70
2017-10-11T11:40:51.982Z,8.82
2017-10-11T11:43:20.255Z,7.35
2017-10-11T11:45:49.087Z,7.80
2017-10-11T11:48:16.611Z,10.00
2017-10-11T11:50:44.881Z,9.45
2017-10-11T11:53:13.148Z,7.47
2017-10-11T11:55:41.454Z,9.40
2017-10-11T11:58:08.970Z,8.98
2017-10-11T12:00:37.011Z,8.75
2017-10-11T12:03:04.531Z,11.05
2017-10-11T12:05:32.042Z,8.70
2017-10-11T12:07:59.555Z,11.80
2017-10-11T12:10:27.308Z,7.35
2017-10-11T12:12:54.828Z,8.25
2017-10-11T12:15:22.321Z,9.50
2017-10-11T12:17:50.660Z,7.93
2017-10-11T12:20:18.264Z,7.80
2017-10-11T12:22:46.531Z,7.43
2017-10-11T12:25:14.813Z,7.25
2017-10-11T12:27:43.112Z,7.87
2017-10-11T12:30:10.696Z,7.93
2017-10-11T12:32:38.327Z,8.00
2017-10-11T12:35:05.873Z,6.82
2017-10-11T12:37:34.144Z,8.80
2017-10-11T12:40:02.426Z,7.30
2017-10-11T12:42:30.691Z,6.20
2017-10-11T12:44:58.219Z,8.82
2017-10-11T12:47:26.577Z,7.25
2017-10-11T12:49:54.088Z,7.70
2017-10-11T12:52:21.601Z,6.37
2017-10-11T12:54:49.128Z,7.70
2017-10-11T12:57:16.660Z,6.15
2017-10-11T12:59:44.252Z,8.18
2017-10-11T13:02:11.757Z,8.30
2017-10-11T13:04:39.303Z,7.00
2017-10-11T13:07:06.817Z,7.70
2017-10-11T13:09:34.346Z,8.10
2017-10-11T13:12:01.852Z,6.70
2017-10-11T13:14:29.409Z,7.28
2017-10-11T13:16:56.948Z,6.03
2017-10-11T13:19:24.467Z,6.78
2017-10-11T13:21:52.064Z,6.35
2017-10-11T13:24:20.357Z,6.30
2017-10-11T13:26:47.885Z,5.65
2017-10-11T13:29:17.655Z,5.95
2017-10-11T13:31:46.000Z,5.75
2017-10-11T13:34:14.322Z,6.25
2017-10-11T13:36:41.844Z,5.97
2017-10-11T13:39:09.411Z,6.10
2017-10-11T13:41:37.690Z,6.22
2017-10-11T13:44:06.024Z,6.60
2017-10-11T13:46:33.527Z,4.90
2017-10-11T13:49:01.036Z,5.25
2017-10-11T13:51:30.337Z,5.62
2017-10-11T13:53:59.491Z,4.20
2017-10-11T13:56:27.093Z,5.55
2017-10-11T13:58:54.626Z,5.72
2017-10-11T14:01:22.212Z,7.10
2017-10-11T14:03:49.774Z,6.37
2017-10-11T14:06:18.008Z,6.03
2017-10-11T14:08:45.521Z,6.70
2017-10-11T14:11:13.051Z,6.57
2017-10-11T14:13:40.570Z,7.18
2017-10-11T14:16:08.925Z,8.18
2017-10-11T14:18:36.509Z,6.95
2017-10-11T14:21:04.869Z,6.50
2017-10-11T14:23:32.447Z,5.40
2017-10-11T14:26:00.721Z,7.95
2017-10-11T14:28:29.064Z,6.60
2017-10-11T14:30:56.602Z,5.62
2017-10-11T14:33:24.125Z,7.32
2017-10-11T14:35:52.433Z,8.80
2017-10-11T14:38:19.958Z,6.93
2017-10-11T14:40:47.532Z,6.12
2017-10-11T14:43:15.800Z,5.10
2017-10-11T14:45:43.382Z,6.32
2017-10-11T14:48:11.308Z,7.03
2017-10-11T14:50:38.825Z,7.70
2017-10-11T14:53:06.376Z,7.15
2017-10-11T14:55:33.931Z,7.10
2017-10-11T14:58:01.448Z,6.90
2017-10-11T15:00:29.113Z,5.80
2017-10-11T15:02:56.628Z,4.25
2017-10-11T15:05:24.233Z,7.53
2017-10-11T15:07:51.825Z,7.60
2017-10-11T15:10:19.364Z,7.07
2017-10-11T15:12:46.905Z,7.37
2017-10-11T15:15:14.400Z,6.40
2017-10-11T15:17:41.945Z,5.85
2017-10-11T15:20:09.508Z,6.80
2017-10-11T15:22:37.796Z,6.53
2017-10-11T15:25:06.197Z,6.50
2017-10-11T15:27:33.703Z,7.70
2017-10-11T15:30:01.204Z,7.15
2017-10-11T15:32:28.737Z,5.93
2017-10-11T15:34:56.245Z,6.25
2017-10-11T15:37:23.767Z,6.82
2017-10-11T15:39:51.309Z,7.30
2017-10-11T15:42:18.828Z,5.32
2017-10-11T15:44:46.345Z,5.85
2017-10-11T15:47:14.618Z,5.55
2017-10-11T15:49:42.941Z,2.97
2017-10-11T15:52:10.515Z,5.30
2017-10-11T15:54:38.061Z,5.82
2017-10-11T15:57:05.579Z,6.00
2017-10-11T15:59:33.104Z,5.25
2017-10-11T16:02:00.651Z,4.28
2017-10-11T16:04:28.191Z,5.85
2017-10-11T16:06:55.712Z,5.90
2017-10-11T16:09:23.991Z,6.82
2017-10-11T16:11:52.451Z,4.90
2017-10-11T16:14:20.789Z,6.85
2017-10-11T16:16:48.300Z,5.93
2017-10-11T16:19:16.755Z,5.15
2017-10-11T16:21:44.274Z,5.65
2017-10-11T16:24:11.805Z,5.07
2017-10-11T16:26:40.469Z,6.28
2017-10-11T16:29:08.737Z,3.65
2017-10-11T16:31:36.258Z,4.62
2017-10-11T16:34:03.825Z,5.32
2017-10-11T16:36:31.442Z,4.25
2017-10-11T16:38:58.961Z,5.00
2017-10-11T16:41:26.484Z,5.10
2017-10-11T16:43:53.995Z,6.25
2017-10-11T16:46:21.537Z,4.60
2017-10-11T16:48:49.119Z,5.25
2017-10-11T16:51:16.640Z,4.70
2017-10-11T16:53:44.280Z,5.45
2017-10-11T16:56:11.793Z,5.53
2017-10-11T16:58:39.318Z,6.30
2017-10-11T17:01:06.951Z,4.87
2017-10-11T17:03:35.236Z,5.43
2017-10-11T17:06:03.516Z,4.50
2017-10-11T17:08:31.031Z,5.40
2017-10-11T17:10:58.563Z,5.70
2017-10-11T17:13:26.105Z,6.65
2017-10-11T17:15:53.595Z,4.00
2017-10-11T17:18:21.116Z,5.22
2017-10-11T17:20:48.656Z,5.28
2017-10-11T17:23:16.177Z,6.35
2017-10-11T17:25:43.673Z,5.50
2017-10-11T17:28:12.053Z,5.57
2017-10-11T17:30:40.331Z,6.15
2017-10-11T17:33:08.751Z,6.12
2017-10-11T17:35:36.302Z,6.53
2017-10-11T17:38:03.867Z,5.62
2017-10-11T17:40:31.377Z,5.10
2017-10-11T17:42:58.897Z,6.03
2017-10-11T17:45:26.401Z,6.60
2017-10-11T17:47:53.916Z,6.35
2017-10-11T17:50:21.428Z,9.32
2017-10-11T17:52:49.697Z,6.97
2017-10-11T17:55:18.123Z,8.65
2017-10-11T17:57:45.656Z,5.15
2017-10-11T18:00:13.919Z,6.22
2017-10-11T18:02:42.338Z,4.93
2017-10-11T18:05:09.860Z,5.55
2017-10-11T18:07:38.115Z,5.28
2017-10-11T18:10:05.613Z,4.50
2017-10-11T18:12:33.376Z,5.90
2017-10-11T18:15:00.880Z,6.00
2017-10-11T18:17:28.380Z,5.75
2017-10-11T18:19:56.672Z,5.25
2017-10-11T18:22:24.180Z,4.95
2017-10-11T18:24:51.685Z,6.05
2017-10-11T18:27:19.191Z,6.03
2017-10-11T18:29:46.742Z,4.20
2017-10-11T18:32:14.290Z,4.90
2017-10-11T18:34:41.831Z,5.12
2017-10-11T18:37:09.337Z,11.90
2017-10-11T18:39:36.893Z,5.62
2017-10-11T18:42:04.429Z,4.93
2017-10-11T18:44:31.960Z,4.35
2017-10-11T18:46:59.850Z,6.43
2017-10-11T18:49:27.369Z,6.18
2017-10-11T18:51:54.877Z,6.62
2017-10-11T18:54:22.382Z,4.35
2017-10-11T18:56:49.904Z,5.97
2017-10-11T18:59:17.448Z,5.57
2017-10-11T19:01:44.951Z,6.85
2017-10-11T19:04:12.483Z,6.90
2017-10-11T19:06:39.985Z,5.78
2017-10-11T19:09:08.304Z,5.80
2017-10-11T19:11:35.826Z,6.25
2017-10-11T19:14:04.126Z,6.30
2017-10-11T19:16:31.677Z,6.20
2017-10-11T19:19:00.036Z,6.37
2017-10-11T19:21:27.561Z,6.45
2017-10-11T19:23:55.059Z,7.68
2017-10-11T19:26:23.360Z,13.77
2017-10-11T19:28:50.866Z,12.95
2017-10-11T19:31:18.375Z,8.25
2017-10-11T19:33:45.916Z,11.38
2017-10-11T19:36:14.195Z,8.05
2017-10-11T19:38:42.557Z,7.65
2017-10-11T19:41:10.098Z,11.18
2017-10-11T19:43:37.605Z,8.27
2017-10-11T19:46:05.612Z,7.12
2017-10-11T19:48:33.115Z,8.13
2017-10-11T19:51:01.400Z,9.98
2017-10-11T19:53:29.676Z,7.45
2017-10-11T19:55:57.992Z,5.07
2017-10-11T19:58:25.489Z,8.88
2017-10-11T20:00:53.004Z,7.50
2017-10-11T20:03:20.546Z,8.43
2017-10-11T20:05:48.081Z,6.60
2017-10-11T20:08:15.612Z,6.65
2017-10-11T20:10:43.121Z,8.13
2017-10-11T20:13:11.407Z,6.90
2017-10-11T20:15:38.912Z,6.00
2017-10-11T20:18:06.483Z,6.97
2017-10-11T20:20:34.888Z,5.97
2017-10-11T20:23:02.432Z,4.97
2017-10-11T20:25:30.738Z,5.60
2017-10-11T20:27:58.901Z,6.82
2017-10-11T20:30:27.188Z,7.32
2017-10-11T20:32:54.779Z,6.97
2017-10-11T20:35:22.302Z,8.55
2017-10-11T20:37:49.925Z,8.20
2017-10-11T20:40:17.553Z,7.07
2017-10-11T20:42:45.279Z,9.25
2017-10-11T20:45:12.795Z,14.35
2017-10-11T20:47:40.317Z,9.65
2017-10-11T20:50:08.615Z,7.40
2017-10-11T20:52:36.138Z,7.85
2017-10-11T20:55:03.650Z,6.90
2017-10-11T20:57:31.181Z,8.63
2017-10-11T20:59:58.687Z,8.25
2017-10-11T21:02:26.209Z,7.87
2017-10-11T21:04:53.731Z,6.70
2017-10-11T21:07:22.012Z,8.13
2017-10-11T21:09:50.295Z,7.95
2017-10-11T21:12:18.580Z,6.28
2017-10-11T21:14:46.859Z,6.62
2017-10-11T21:17:15.153Z,6.78
2017-10-11T21:19:42.661Z,7.20
2017-10-11T21:22:11.060Z,6.30
2017-10-11T21:24:39.331Z,6.20
2017-10-11T21:27:07.618Z,6.15
2017-10-11T21:29:35.927Z,6.78
2017-10-11T21:32:03.432Z,5.32
2017-10-11T21:34:30.947Z,6.60
2017-10-11T21:36:58.467Z,7.12
2017-10-11T21:39:26.767Z,9.35
2017-10-11T21:41:54.270Z,6.50
2017-10-11T21:44:21.764Z,6.35
2017-10-11T21:46:49.285Z,3.53
2017-10-11T21:49:16.801Z,4.50
2017-10-11T21:51:44.317Z,6.15
2017-10-11T21:54:11.837Z,4.95
2017-10-11T21:56:39.341Z,5.45
2017-10-11T21:59:06.873Z,4.78
2017-10-11T22:01:34.386Z,4.05
2017-10-11T22:04:01.907Z,4.62
2017-10-11T22:06:29.420Z,4.75
2017-10-11T22:08:56.949Z,3.75
2017-10-11T22:11:24.492Z,4.57
2017-10-11T22:13:52.004Z,5.72
2017-10-11T22:16:19.519Z,5.12
2017-10-11T22:18:47.047Z,5.75
2017-10-11T22:21:14.560Z,5.65
2017-10-11T22:23:42.867Z,5.40
2017-10-11T22:26:10.448Z,4.28
2017-10-11T22:28:37.961Z,3.47
2017-10-11T22:31:05.493Z,5.35
2017-10-11T22:33:32.990Z,4.55
2017-10-11T22:36:00.510Z,5.47
2017-10-11T22:38:28.055Z,4.87
2017-10-11T22:40:55.567Z,5.25
2017-10-11T22:43:23.067Z,5.45
2017-10-11T22:45:51.436Z,4.40
2017-10-11T22:48:18.948Z,4.82
2017-10-11T22:50:47.522Z,5.85
2017-10-11T22:53:15.787Z,5.30
2017-10-11T22:55:43.290Z,4.95
2017-10-11T22:58:10.796Z,4.57
2017-10-11T23:00:38.292Z,5.37
2017-10-11T23:03:05.811Z,5.25
2017-10-11T23:05:33.347Z,4.57
2017-10-11T23:08:00.852Z,4.43
2017-10-11T23:10:29.126Z,4.70
2017-10-11T23:12:56.680Z,4.28
2017-10-11T23:15:24.213Z,4.60
2017-10-11T23:17:51.813Z,4.60
2017-10-11T23:20:20.085Z,5.18
2017-10-11T23:22:47.603Z,4.90
2017-10-11T23:25:15.103Z,5.00
2017-10-11T23:27:42.615Z,5.40
2017-10-11T23:30:10.112Z,4.20
2017-10-11T23:32:37.631Z,4.03
2017-10-11T23:35:05.141Z,4.90
2017-10-11T23:37:32.668Z,4.47
2017-10-11T23:40:00.184Z,5.37
2017-10-11T23:42:27.699Z,4.68
2017-10-11T23:44:55.205Z,4.12
2017-10-11T23:47:22.879Z,5.55
2017-10-11T23:49:50.378Z,5.50
2017-10-11T23:52:18.691Z,4.80
2017-10-11T23:54:46.966Z,4.20
2017-10-11T23:57:15.248Z,4.45
2017-10-11T23:59:43.520Z,4.40
